createdAt,value
2023-03-13T00:01:34.609Z,10.70
2023-03-13T00:04:03.564Z,10.80
2023-03-13T00:06:34.602Z,10.80
2023-03-13T00:09:05.244Z,10.80
2023-03-13T00:11:34.582Z,10.80
2023-03-13T00:14:04.929Z,10.80
2023-03-13T00:16:37.310Z,10.80
2023-03-13T00:19:07.241Z,10.90
2023-03-13T00:21:38.094Z,10.90
2023-03-13T00:24:06.894Z,11.00
2023-03-13T00:26:35.491Z,11.00
2023-03-13T00:29:04.125Z,10.90
2023-03-13T00:31:34.588Z,10.90
2023-03-13T00:34:04.355Z,10.90
2023-03-13T00:36:35.377Z,11.00
2023-03-13T00:39:05.261Z,10.90
2023-03-13T00:41:38.048Z,10.90
2023-03-13T00:44:07.179Z,10.90
2023-03-13T00:46:37.848Z,10.90
2023-03-13T00:49:06.877Z,11.00
2023-03-13T00:51:35.813Z,11.00
2023-03-13T00:54:04.944Z,10.90
2023-03-13T00:56:34.858Z,10.90
2023-03-13T00:59:03.680Z,10.90
2023-03-13T01:01:33.900Z,10.90
2023-03-13T01:04:06.047Z,10.90
2023-03-13T01:06:37.436Z,10.90
2023-03-13T01:09:07.580Z,10.80
2023-03-13T01:11:37.753Z,10.70
2023-03-13T01:14:08.936Z,10.70
2023-03-13T01:16:38.713Z,10.60
2023-03-13T01:19:13.001Z,10.50
2023-03-13T01:21:42.789Z,10.60
2023-03-13T01:24:11.951Z,10.60
2023-03-13T01:26:40.762Z,10.60
2023-03-13T01:29:09.431Z,10.60
2023-03-13T01:31:38.521Z,10.70
2023-03-13T01:34:12.066Z,10.70
2023-03-13T01:36:40.612Z,10.70
2023-03-13T01:39:09.270Z,10.80
2023-03-13T01:41:39.128Z,10.80
2023-03-13T01:44:22.826Z,10.80
2023-03-13T01:46:51.720Z,10.90
2023-03-13T01:49:28.739Z,11.00
2023-03-13T01:52:20.505Z,11.00
2023-03-13T01:54:58.326Z,11.10
2023-03-13T01:57:29.140Z,11.10
2023-03-13T02:00:03.909Z,11.10
2023-03-13T02:02:44.125Z,11.10
2023-03-13T02:05:16.146Z,11.10
2023-03-13T02:07:49.387Z,11.10
2023-03-13T02:10:18.914Z,11.20
2023-03-13T02:12:47.812Z,11.10
2023-03-13T02:15:19.128Z,11.10
2023-03-13T02:17:49.905Z,11.20
2023-03-13T02:20:22.826Z,11.20
2023-03-13T02:23:01.701Z,11.30
2023-03-13T02:25:39.067Z,11.30
2023-03-13T02:28:11.992Z,11.40
2023-03-13T02:30:45.162Z,11.30
2023-03-13T02:33:15.392Z,11.30
2023-03-13T02:35:45.391Z,11.40
2023-03-13T02:38:20.704Z,11.40
2023-03-13T02:40:52.945Z,11.40
2023-03-13T02:43:28.710Z,11.30
2023-03-13T02:46:05.238Z,11.30
2023-03-13T02:48:38.127Z,11.30
2023-03-13T02:51:14.881Z,11.20
2023-03-13T02:53:44.872Z,11.20
2023-03-13T02:56:18.660Z,11.10
2023-03-13T02:58:50.373Z,11.10
2023-03-13T03:01:21.662Z,11.10
2023-03-13T03:03:51.112Z,11.00
2023-03-13T03:06:19.806Z,11.00
2023-03-13T03:08:49.439Z,11.00
2023-03-13T03:11:19.476Z,11.00
2023-03-13T03:13:52.765Z,11.00
2023-03-13T03:16:21.361Z,11.00
2023-03-13T03:18:50.011Z,11.00
2023-03-13T03:21:19.104Z,11.10
2023-03-13T03:23:47.982Z,11.10
2023-03-13T03:26:17.114Z,11.10
2023-03-13T03:28:47.073Z,11.20
2023-03-13T03:31:17.004Z,11.20
2023-03-13T03:33:46.283Z,11.20
2023-03-13T03:36:20.040Z,11.20
2023-03-13T03:38:49.265Z,11.20
2023-03-13T03:41:20.883Z,11.20
2023-03-13T03:43:50.936Z,11.20
2023-03-13T03:46:24.637Z,11.20
2023-03-13T03:48:53.474Z,11.30
2023-03-13T03:51:23.078Z,11.30
2023-03-13T03:53:51.858Z,11.30
2023-03-13T03:56:20.522Z,11.30
2023-03-13T03:58:55.639Z,11.30
2023-03-13T04:01:45.482Z,11.30
2023-03-13T04:04:15.491Z,11.20
2023-03-13T04:06:47.006Z,11.30
2023-03-13T04:09:15.639Z,11.30
2023-03-13T04:11:44.452Z,11.30
2023-03-13T04:14:15.226Z,11.30
2023-03-13T04:16:44.170Z,11.20
2023-03-13T04:19:13.226Z,11.20
2023-03-13T04:21:43.117Z,11.20
2023-03-13T04:24:15.870Z,11.20
2023-03-13T04:26:45.355Z,11.30
2023-03-13T04:29:15.450Z,11.30
2023-03-13T04:32:02.461Z,11.30
2023-03-13T04:35:01.036Z,11.40
2023-03-13T04:38:02.717Z,11.40
2023-03-13T04:40:50.256Z,11.50
2023-03-13T04:43:35.959Z,11.50
2023-03-13T04:46:25.343Z,11.50
2023-03-13T04:49:11.190Z,11.50
2023-03-13T04:52:04.683Z,11.50
2023-03-13T04:54:51.632Z,11.50
2023-03-13T04:57:31.198Z,11.60
2023-03-13T05:00:20.554Z,11.60
2023-03-13T05:03:14.116Z,11.60
2023-03-13T05:06:02.930Z,11.50
2023-03-13T05:08:57.429Z,11.60
2023-03-13T05:11:42.210Z,11.70
2023-03-13T05:14:36.905Z,11.80
2023-03-13T05:17:23.018Z,11.80
2023-03-13T05:20:12.214Z,11.80
2023-03-13T05:22:48.217Z,11.80
2023-03-13T05:25:34.408Z,11.80
2023-03-13T05:28:27.175Z,11.80
2023-03-13T05:31:15.364Z,11.90
2023-03-13T05:34:10.249Z,11.90
2023-03-13T05:37:10.992Z,11.90
2023-03-13T05:39:55.790Z,11.90
2023-03-13T05:42:59.690Z,12.00
2023-03-13T05:45:51.182Z,12.00
2023-03-13T05:48:38.237Z,12.00
2023-03-13T05:51:07.218Z,12.10
2023-03-13T05:53:55.830Z,12.10
2023-03-13T05:56:56.710Z,12.10
2023-03-13T05:59:34.243Z,12.20
2023-03-13T06:02:20.746Z,12.20
2023-03-13T06:04:50.250Z,12.20
2023-03-13T06:07:19.394Z,12.20
2023-03-13T06:09:50.986Z,12.30
2023-03-13T06:12:19.658Z,12.30
2023-03-13T06:14:48.326Z,12.40
2023-03-13T06:17:25.478Z,12.40
2023-03-13T06:19:54.231Z,12.50
2023-03-13T06:22:22.841Z,12.60
2023-03-13T06:24:52.844Z,12.60
2023-03-13T06:27:21.423Z,12.60
2023-03-13T06:29:50.075Z,12.60
2023-03-13T06:32:18.869Z,12.80
2023-03-13T06:34:47.483Z,12.60
2023-03-13T06:37:16.262Z,12.60
2023-03-13T06:39:44.854Z,12.60
2023-03-13T06:42:14.776Z,12.70
2023-03-13T06:44:43.289Z,12.70
2023-03-13T06:47:14.346Z,12.70
2023-03-13T06:49:44.010Z,12.80
2023-03-13T06:52:12.800Z,12.80
2023-03-13T06:54:41.394Z,12.80
2023-03-13T06:57:09.976Z,12.80
2023-03-13T06:59:40.138Z,12.80
2023-03-13T07:02:11.028Z,12.80
2023-03-13T07:04:39.651Z,12.80
2023-03-13T07:07:11.617Z,12.90
2023-03-13T07:09:43.594Z,12.90
2023-03-13T07:12:12.163Z,12.90
2023-03-13T07:14:42.069Z,13.00
2023-03-13T07:17:10.610Z,13.30
2023-03-13T07:19:39.184Z,13.20
2023-03-13T07:22:07.801Z,13.20
2023-03-13T07:24:36.498Z,13.30
2023-03-13T07:27:07.970Z,13.30
2023-03-13T07:29:36.902Z,13.30
2023-03-13T07:32:07.921Z,13.40
2023-03-13T07:34:36.556Z,13.40
2023-03-13T07:37:05.122Z,13.40
2023-03-13T07:39:33.695Z,13.50
2023-03-13T07:42:02.251Z,13.60
2023-03-13T07:44:31.063Z,13.50
2023-03-13T07:47:01.211Z,13.50
2023-03-13T07:49:32.164Z,13.60
2023-03-13T07:52:00.819Z,13.60
2023-03-13T07:54:29.640Z,13.70
2023-03-13T07:56:58.180Z,13.80
2023-03-13T07:59:26.949Z,13.90
2023-03-13T08:01:55.599Z,13.90
2023-03-13T08:04:24.202Z,13.90
2023-03-13T08:06:54.647Z,14.00
2023-03-13T08:09:23.201Z,14.10
2023-03-13T08:11:51.706Z,14.10
2023-03-13T08:14:20.261Z,14.20
2023-03-13T08:16:49.066Z,14.30
2023-03-13T08:19:17.623Z,14.30
2023-03-13T08:21:46.145Z,14.40
2023-03-13T08:24:16.050Z,14.50
2023-03-13T08:26:44.645Z,14.40
2023-03-13T08:29:15.692Z,14.50
2023-03-13T08:31:45.685Z,14.60
2023-03-13T08:34:15.462Z,14.50
2023-03-13T08:36:44.610Z,14.50
2023-03-13T08:39:16.041Z,14.50
2023-03-13T08:41:44.738Z,14.50
2023-03-13T08:44:15.364Z,14.50
2023-03-13T08:46:44.897Z,14.50
2023-03-13T08:49:13.964Z,14.50
2023-03-13T08:51:42.725Z,14.40
2023-03-13T08:54:11.524Z,14.40
2023-03-13T08:56:43.764Z,14.40
2023-03-13T08:59:12.615Z,14.50
2023-03-13T09:01:41.245Z,14.60
2023-03-13T09:04:09.856Z,14.60
2023-03-13T09:06:39.664Z,14.60
2023-03-13T09:09:09.777Z,14.60
2023-03-13T09:11:39.310Z,14.60
2023-03-13T09:14:10.925Z,14.70
2023-03-13T09:16:39.429Z,14.70
2023-03-13T09:19:08.104Z,14.70
2023-03-13T09:21:39.779Z,14.90
2023-03-13T09:24:09.308Z,14.80
2023-03-13T09:26:38.698Z,14.90
2023-03-13T09:29:07.314Z,14.90
2023-03-13T09:31:38.340Z,15.00
2023-03-13T09:34:07.003Z,15.00
2023-03-13T09:36:35.703Z,15.10
2023-03-13T09:39:04.333Z,15.10
2023-03-13T09:41:37.643Z,15.10
2023-03-13T09:44:12.004Z,15.20
2023-03-13T09:46:49.250Z,15.10
2023-03-13T09:49:30.260Z,15.10
2023-03-13T09:52:06.773Z,15.00
2023-03-13T09:54:40.815Z,15.00
2023-03-13T09:57:17.464Z,15.00
2023-03-13T09:59:51.339Z,15.10
2023-03-13T10:02:30.174Z,15.10
2023-03-13T10:05:06.888Z,15.00
2023-03-13T10:07:35.679Z,15.10
2023-03-13T10:10:08.303Z,15.10
2023-03-13T10:12:42.936Z,15.00
2023-03-13T10:15:33.791Z,15.00
2023-03-13T10:18:13.328Z,15.20
2023-03-13T10:20:43.176Z,15.10
2023-03-13T10:23:17.400Z,15.20
2023-03-13T10:25:45.984Z,15.20
2023-03-13T10:28:16.439Z,15.10
2023-03-13T10:30:48.902Z,15.20
2023-03-13T10:33:24.383Z,15.10
2023-03-13T10:36:04.906Z,15.00
2023-03-13T10:38:36.753Z,15.00
2023-03-13T10:41:10.967Z,15.20
2023-03-13T10:43:51.774Z,15.20
2023-03-13T10:46:28.517Z,15.20
2023-03-13T10:49:01.676Z,15.20
2023-03-13T10:51:37.093Z,15.20
2023-03-13T10:54:16.991Z,15.30
2023-03-13T10:56:45.635Z,15.30
2023-03-13T10:59:23.960Z,15.40
2023-03-13T11:01:53.717Z,15.40
2023-03-13T11:04:33.513Z,15.50
2023-03-13T11:07:06.009Z,15.60
2023-03-13T11:09:34.636Z,15.60
2023-03-13T11:12:06.176Z,15.60
2023-03-13T11:14:35.980Z,15.70
2023-03-13T11:17:11.061Z,15.70
2023-03-13T11:19:54.953Z,15.80
2023-03-13T11:22:43.896Z,15.90
2023-03-13T11:25:22.133Z,16.00
2023-03-13T11:28:05.013Z,16.10
2023-03-13T11:30:59.014Z,16.20
2023-03-13T11:33:35.213Z,16.20
2023-03-13T11:36:15.540Z,16.30
2023-03-13T11:38:49.545Z,16.40
2023-03-13T11:41:33.172Z,16.50
2023-03-13T11:44:30.536Z,16.50
2023-03-13T11:47:17.450Z,16.70
2023-03-13T11:50:09.809Z,16.80
2023-03-13T11:53:09.978Z,17.00
2023-03-13T11:55:58.046Z,17.10
2023-03-13T11:58:46.822Z,17.20
2023-03-13T12:01:18.964Z,17.30
2023-03-13T12:03:57.617Z,17.30
2023-03-13T12:06:32.010Z,17.30
2023-03-13T12:09:10.653Z,17.30
2023-03-13T12:11:45.983Z,17.40
2023-03-13T12:14:19.891Z,17.40
2023-03-13T12:16:52.322Z,17.50
2023-03-13T12:19:28.267Z,17.50
2023-03-13T12:21:59.446Z,17.50
2023-03-13T12:24:35.062Z,17.60
2023-03-13T12:27:11.826Z,17.60
2023-03-13T12:29:47.386Z,17.60
2023-03-13T12:32:23.281Z,17.60
2023-03-13T12:35:01.686Z,17.60
2023-03-13T12:37:40.123Z,17.60
2023-03-13T12:40:22.365Z,17.50
2023-03-13T12:42:58.187Z,17.40
2023-03-13T12:45:29.359Z,17.40
2023-03-13T12:48:24.201Z,17.40
2023-03-13T12:51:05.455Z,17.40
2023-03-13T12:54:13.011Z,17.40
2023-03-13T12:56:58.982Z,17.40
2023-03-13T12:59:32.066Z,17.30
2023-03-13T13:02:03.625Z,17.30
2023-03-13T13:04:34.725Z,17.30
2023-03-13T13:07:06.840Z,17.20
2023-03-13T13:09:39.248Z,17.20
2023-03-13T13:12:21.984Z,17.20
2023-03-13T13:15:05.893Z,17.20
2023-03-13T13:18:13.638Z,17.20
2023-03-13T13:20:45.492Z,17.10
2023-03-13T13:23:39.276Z,17.00
2023-03-13T13:26:47.481Z,16.90
2023-03-13T13:29:58.671Z,16.80
2023-03-13T13:32:46.200Z,16.80
2023-03-13T13:35:42.175Z,16.90
2023-03-13T13:38:40.133Z,17.00
2023-03-13T13:41:26.113Z,17.10
2023-03-13T13:44:26.210Z,17.20
2023-03-13T13:46:56.964Z,17.30
2023-03-13T13:49:33.687Z,17.40
2023-03-13T13:52:35.618Z,17.40
2023-03-13T13:55:25.317Z,17.40
2023-03-13T13:58:00.934Z,17.40
2023-03-13T14:00:35.855Z,17.40
2023-03-13T14:03:17.731Z,17.40
2023-03-13T14:05:49.294Z,17.40
2023-03-13T14:08:24.028Z,17.40
2023-03-13T14:11:04.836Z,17.50
2023-03-13T14:13:33.469Z,17.50
2023-03-13T14:16:24.339Z,17.50
2023-03-13T14:18:53.997Z,17.50
2023-03-13T14:21:25.323Z,17.50
2023-03-13T14:23:54.202Z,17.50
2023-03-13T14:26:25.172Z,17.50
2023-03-13T14:28:56.072Z,17.60
2023-03-13T14:31:28.681Z,17.60
2023-03-13T14:33:58.567Z,17.60
2023-03-13T14:36:29.220Z,17.60
2023-03-13T14:38:59.381Z,17.60
2023-03-13T14:41:33.334Z,17.50
2023-03-13T14:44:07.244Z,17.50
2023-03-13T14:46:37.983Z,17.40
2023-03-13T14:49:16.073Z,17.30
2023-03-13T14:51:46.880Z,17.20
2023-03-13T14:54:31.253Z,17.20
2023-03-13T14:57:14.916Z,17.10
2023-03-13T14:59:44.225Z,17.00
2023-03-13T15:02:18.325Z,17.10
2023-03-13T15:04:59.806Z,17.00
2023-03-13T15:07:38.194Z,17.00
2023-03-13T15:10:21.013Z,17.00
2023-03-13T15:12:50.608Z,17.00
2023-03-13T15:15:20.074Z,16.90
2023-03-13T15:17:48.978Z,16.80
2023-03-13T15:20:18.340Z,16.90
2023-03-13T15:22:48.634Z,16.90
2023-03-13T15:25:19.832Z,16.90
2023-03-13T15:27:49.042Z,17.00
2023-03-13T15:30:19.253Z,17.00
2023-03-13T15:32:48.762Z,17.10
2023-03-13T15:35:27.198Z,17.20
2023-03-13T15:37:57.951Z,17.30
2023-03-13T15:40:27.532Z,17.30
2023-03-13T15:42:56.784Z,17.30
2023-03-13T15:45:25.386Z,17.30
2023-03-13T15:47:54.474Z,17.20
2023-03-13T15:50:29.531Z,17.10
2023-03-13T15:53:00.742Z,17.10
2023-03-13T15:55:31.115Z,17.00
2023-03-13T15:57:59.797Z,17.00
2023-03-13T16:00:28.895Z,17.00
2023-03-13T16:02:57.490Z,17.10
2023-03-13T16:05:26.196Z,17.10
2023-03-13T16:07:54.831Z,17.10
2023-03-13T16:10:27.303Z,17.10
2023-03-13T16:12:56.469Z,17.20
2023-03-13T16:15:25.385Z,17.10
2023-03-13T16:17:53.959Z,17.10
2023-03-13T16:20:24.976Z,17.10
2023-03-13T16:22:54.926Z,17.10
2023-03-13T16:25:25.975Z,17.10
2023-03-13T16:27:56.260Z,17.10
2023-03-13T16:30:27.064Z,17.00
2023-03-13T16:32:55.885Z,17.00
2023-03-13T16:35:26.680Z,17.00
2023-03-13T16:37:55.723Z,16.90
2023-03-13T16:40:27.553Z,16.80
2023-03-13T16:42:56.415Z,16.80
2023-03-13T16:45:25.271Z,16.60
2023-03-13T16:47:54.592Z,16.50
2023-03-13T16:50:26.631Z,16.40
2023-03-13T16:52:55.920Z,16.30
2023-03-13T16:55:28.666Z,16.20
2023-03-13T16:57:58.096Z,16.20
2023-03-13T17:00:29.399Z,16.10
2023-03-13T17:02:58.743Z,16.00
2023-03-13T17:05:28.615Z,16.00
2023-03-13T17:07:57.445Z,15.90
2023-03-13T17:10:30.204Z,15.90
2023-03-13T17:12:58.963Z,15.90
2023-03-13T17:15:29.545Z,15.80
2023-03-13T17:17:58.354Z,15.70
2023-03-13T17:20:28.868Z,15.60
2023-03-13T17:22:58.015Z,15.60
2023-03-13T17:25:28.103Z,15.50
2023-03-13T17:27:56.888Z,15.50
2023-03-13T17:30:27.527Z,15.40
2023-03-13T17:32:56.585Z,15.30
2023-03-13T17:35:27.027Z,15.30
2023-03-13T17:37:55.834Z,15.20
2023-03-13T17:40:27.821Z,15.20
2023-03-13T17:42:57.217Z,15.10
2023-03-13T17:45:26.278Z,15.00
2023-03-13T17:47:54.865Z,14.90
2023-03-13T17:50:26.438Z,14.90
2023-03-13T17:52:55.209Z,14.80
2023-03-13T17:55:24.232Z,14.70
2023-03-13T17:57:54.261Z,14.70
2023-03-13T18:00:24.999Z,14.60
2023-03-13T18:02:53.976Z,14.50
2023-03-13T18:05:22.953Z,14.50
2023-03-13T18:07:51.966Z,14.40
2023-03-13T18:10:22.612Z,14.40
2023-03-13T18:12:53.049Z,14.40
2023-03-13T18:15:22.772Z,14.40
2023-03-13T18:17:52.404Z,14.30
2023-03-13T18:20:23.058Z,14.30
2023-03-13T18:22:51.930Z,14.30
2023-03-13T18:25:20.511Z,14.20
2023-03-13T18:27:49.054Z,14.20
2023-03-13T18:30:21.468Z,14.20
2023-03-13T18:32:50.300Z,14.20
2023-03-13T18:35:19.532Z,14.20
2023-03-13T18:37:48.980Z,14.20
2023-03-13T18:40:20.388Z,14.10
2023-03-13T18:42:49.082Z,14.20
2023-03-13T18:45:21.444Z,14.20
2023-03-13T18:47:50.013Z,14.30
2023-03-13T18:50:23.660Z,14.20
2023-03-13T18:52:53.012Z,14.20
2023-03-13T18:55:21.623Z,14.20
2023-03-13T18:57:50.412Z,14.10
2023-03-13T19:00:24.240Z,14.10
2023-03-13T19:02:52.892Z,14.10
2023-03-13T19:05:21.580Z,14.00
2023-03-13T19:07:50.227Z,14.00
2023-03-13T19:10:21.484Z,13.90
2023-03-13T19:12:50.103Z,13.90
2023-03-13T19:15:21.774Z,14.00
2023-03-13T19:17:50.345Z,14.00
2023-03-13T19:20:21.734Z,13.90
2023-03-13T19:22:50.385Z,13.80
2023-03-13T19:25:20.937Z,13.80
2023-03-13T19:27:49.767Z,13.70
2023-03-13T19:30:22.330Z,13.70
2023-03-13T19:32:51.127Z,13.50
2023-03-13T19:35:21.703Z,13.50
2023-03-13T19:37:50.852Z,13.40
2023-03-13T19:40:22.377Z,13.30
2023-03-13T19:42:51.013Z,13.30
2023-03-13T19:45:22.069Z,13.30
2023-03-13T19:47:51.208Z,13.30
2023-03-13T19:50:21.783Z,13.20
2023-03-13T19:52:50.503Z,13.20
2023-03-13T19:55:19.069Z,13.10
2023-03-13T19:57:47.595Z,13.10
2023-03-13T20:00:23.245Z,13.00
2023-03-13T20:02:54.966Z,12.90
2023-03-13T20:05:24.305Z,12.90
2023-03-13T20:07:54.058Z,12.80
2023-03-13T20:10:23.003Z,12.70
2023-03-13T20:12:53.530Z,12.60
2023-03-13T20:15:23.497Z,12.50
2023-03-13T20:17:52.091Z,12.50
2023-03-13T20:20:20.990Z,12.40
2023-03-13T20:22:49.489Z,12.30
2023-03-13T20:25:18.337Z,12.30
2023-03-13T20:27:47.015Z,12.20
2023-03-13T20:30:15.897Z,12.20
2023-03-13T20:32:58.497Z,12.20
2023-03-13T20:35:29.336Z,12.20
2023-03-13T20:37:59.777Z,12.10
2023-03-13T20:40:28.547Z,12.10
2023-03-13T20:42:58.359Z,12.10
2023-03-13T20:45:29.314Z,12.10
2023-03-13T20:47:59.834Z,12.00
2023-03-13T20:50:28.684Z,11.90
2023-03-13T20:52:57.231Z,11.80
2023-03-13T20:55:25.893Z,11.80
2023-03-13T20:57:54.370Z,11.70
2023-03-13T21:00:23.552Z,11.70
2023-03-13T21:02:54.264Z,11.60
2023-03-13T21:05:24.147Z,11.60
2023-03-13T21:07:52.685Z,11.50
2023-03-13T21:10:21.752Z,11.40
2023-03-13T21:12:50.527Z,11.30
2023-03-13T21:15:19.605Z,11.30
2023-03-13T21:17:48.370Z,11.20
2023-03-13T21:20:16.986Z,11.10
2023-03-13T21:22:46.906Z,11.10
2023-03-13T21:25:15.733Z,11.10
2023-03-13T21:27:44.731Z,11.00
2023-03-13T21:30:17.427Z,11.00
2023-03-13T21:32:47.090Z,11.00
2023-03-13T21:35:17.264Z,11.00
2023-03-13T21:37:47.210Z,11.00
2023-03-13T21:40:16.047Z,11.00
2023-03-13T21:42:44.530Z,11.10
2023-03-13T21:45:13.283Z,11.20
2023-03-13T21:47:41.914Z,11.20
2023-03-13T21:50:13.678Z,11.30
2023-03-13T21:52:42.413Z,11.30
2023-03-13T21:55:13.818Z,11.40
2023-03-13T21:57:42.620Z,11.40
2023-03-13T22:00:13.921Z,11.50
2023-03-13T22:02:44.192Z,11.60
2023-03-13T22:05:13.185Z,11.60
2023-03-13T22:07:41.755Z,11.60
2023-03-13T22:10:12.589Z,11.60
2023-03-13T22:12:41.214Z,11.60
2023-03-13T22:15:11.417Z,11.70
2023-03-13T22:17:40.059Z,11.70
2023-03-13T22:20:10.416Z,11.70
2023-03-13T22:22:38.953Z,11.60
2023-03-13T22:25:08.040Z,11.70
2023-03-13T22:27:37.950Z,11.70
2023-03-13T22:30:07.928Z,11.70
2023-03-13T22:32:36.772Z,11.70
2023-03-13T22:35:06.333Z,11.70
2023-03-13T22:37:34.987Z,11.70
2023-03-13T22:40:03.754Z,11.60
2023-03-13T22:42:32.413Z,11.60
2023-03-13T22:45:02.312Z,11.50
2023-03-13T22:47:32.419Z,11.40
2023-03-13T22:50:01.015Z,11.40
2023-03-13T22:52:30.871Z,11.40
2023-03-13T22:54:59.593Z,11.40
2023-03-13T22:57:29.008Z,11.30
2023-03-13T22:59:59.180Z,11.30
2023-03-13T23:02:29.425Z,11.20
2023-03-13T23:05:00.369Z,11.20
2023-03-13T23:07:30.305Z,11.20
2023-03-13T23:09:59.765Z,11.10
2023-03-13T23:12:30.813Z,11.10
2023-03-13T23:15:00.514Z,11.00
2023-03-13T23:17:33.288Z,11.00
2023-03-13T23:20:02.141Z,11.00
2023-03-13T23:22:32.895Z,10.90
2023-03-13T23:25:01.634Z,10.90
2023-03-13T23:27:30.166Z,10.90
2023-03-13T23:30:01.704Z,10.80
2023-03-13T23:32:32.256Z,10.80
2023-03-13T23:35:03.264Z,10.80
2023-03-13T23:37:33.200Z,10.80
2023-03-13T23:40:02.480Z,10.80
2023-03-13T23:42:31.484Z,10.80
2023-03-13T23:45:02.363Z,10.80
2023-03-13T23:47:33.253Z,10.90
2023-03-13T23:50:01.966Z,10.80
2023-03-13T23:52:30.496Z,10.90
2023-03-13T23:54:59.098Z,10.80
2023-03-13T23:57:27.683Z,10.80
2023-03-13T23:59:56.246Z,10.80
